TGW255 WIPP-WSSS
Flight info
| Callsign | TGW255 |
|---|---|
| Flight time | 0h 42m |
| Altitude | 34000 |
| Route | PARDI2B PARDI G579 REPOV REPOV2A |
| Aircraft | E290/M-SDFRGIWHY/S |
Departure
| Time | 2026-05-05 12:57 |
|---|---|
| Airport | Sultan Mahmud Badaruddin II Airport (WIPP) |
Arrival
| Time | 2026-05-05 13:39 |
|---|---|
| Airport | Singapore Changi Airport (WSSS) |
| Time | Latitude | Longitude | Altitude | Speed | Heading |
|---|---|---|---|---|---|
| 2026-05-05 12:51 | -2.89619 | 104.70273 | 39 ft | 0 kts | 61° |
| 2026-05-05 12:53 | -2.89619 | 104.70275 | 39 ft | 0 kts | 74° |
| 2026-05-05 12:53 | -2.89623 | 104.70281 | 39 ft | 2 kts | 123° |
| 2026-05-05 12:53 | -2.89654 | 104.70313 | 39 ft | 10 kts | 123° |
| 2026-05-05 12:53 | -2.89692 | 104.70406 | 38 ft | 18 kts | 111° |
| 2026-05-05 12:54 | -2.89838 | 104.70540 | 37 ft | 14 kts | 205° |
| 2026-05-05 12:54 | -2.89906 | 104.70593 | 36 ft | 15 kts | 113° |
| 2026-05-05 12:54 | -2.89952 | 104.70701 | 35 ft | 19 kts | 113° |
| 2026-05-05 12:55 | -2.90006 | 104.70829 | 33 ft | 22 kts | 112° |
| 2026-05-05 12:55 | -2.90068 | 104.70976 | 33 ft | 24 kts | 113° |
| 2026-05-05 12:55 | -2.90190 | 104.71050 | 33 ft | 17 kts | 204° |
| 2026-05-05 12:55 | -2.90249 | 104.70979 | 34 ft | 2 kts | 265° |
| 2026-05-05 12:56 | -2.90244 | 104.70969 | 34 ft | 0 kts | 292° |
| 2026-05-05 12:56 | -2.90241 | 104.70962 | 34 ft | 3 kts | 292° |
| 2026-05-05 12:56 | -2.90183 | 104.70824 | 34 ft | 61 kts | 292° |
| 2026-05-05 12:56 | -2.89898 | 104.70149 | 40 ft | 146 kts | 292° |
| 2026-05-05 12:57 | -2.89440 | 104.69049 | 571 ft | 188 kts | 292° |
| 2026-05-05 12:57 | -2.88938 | 104.67800 | 1797 ft | 191 kts | 294° |
| 2026-05-05 12:57 | -2.88194 | 104.66705 | 3117 ft | 195 kts | 315° |
| 2026-05-05 12:57 | -2.87050 | 104.65924 | 4354 ft | 204 kts | 335° |
| 2026-05-05 12:58 | -2.85672 | 104.65541 | 5658 ft | 206 kts | 348° |
| 2026-05-05 12:58 | -2.84250 | 104.65267 | 6793 ft | 219 kts | 348° |
| 2026-05-05 12:58 | -2.82575 | 104.64925 | 7080 ft | 268 kts | 348° |
| 2026-05-05 12:58 | -2.80623 | 104.64514 | 7646 ft | 305 kts | 348° |
| 2026-05-05 12:59 | -2.78433 | 104.64060 | 8255 ft | 337 kts | 348° |
| 2026-05-05 12:59 | -2.76119 | 104.63581 | 9540 ft | 344 kts | 348° |
| 2026-05-05 12:59 | -2.73755 | 104.63090 | 10977 ft | 349 kts | 348° |
| 2026-05-05 13:00 | -2.68922 | 104.62090 | 13559 ft | 361 kts | 348° |
| 2026-05-05 13:00 | -2.66439 | 104.61575 | 14738 ft | 368 kts | 348° |
| 2026-05-05 13:01 | -2.58741 | 104.59981 | 18004 ft | 388 kts | 349° |
| 2026-05-05 13:01 | -2.56077 | 104.59432 | 18937 ft | 394 kts | 349° |
| 2026-05-05 13:01 | -2.53368 | 104.58884 | 19781 ft | 401 kts | 350° |
| 2026-05-05 13:01 | -2.50607 | 104.58371 | 20574 ft | 406 kts | 351° |
| 2026-05-05 13:02 | -2.47808 | 104.57845 | 21329 ft | 412 kts | 351° |
| 2026-05-05 13:02 | -2.44971 | 104.57327 | 22077 ft | 417 kts | 351° |
| 2026-05-05 13:02 | -2.42100 | 104.56796 | 22754 ft | 422 kts | 351° |
| 2026-05-05 13:02 | -2.39200 | 104.56256 | 23435 ft | 426 kts | 351° |
| 2026-05-05 13:03 | -2.36311 | 104.55715 | 24212 ft | 428 kts | 351° |
| 2026-05-05 13:03 | -2.33345 | 104.55156 | 24650 ft | 436 kts | 351° |
| 2026-05-05 13:03 | -2.30345 | 104.54588 | 25251 ft | 440 kts | 351° |
| 2026-05-05 13:03 | -2.27332 | 104.54018 | 25832 ft | 443 kts | 351° |
| 2026-05-05 13:04 | -2.24291 | 104.53438 | 26359 ft | 446 kts | 351° |
| 2026-05-05 13:04 | -2.21232 | 104.52859 | 26877 ft | 449 kts | 351° |
| 2026-05-05 13:04 | -2.18154 | 104.52276 | 27358 ft | 452 kts | 351° |
| 2026-05-05 13:04 | -2.15050 | 104.51689 | 27815 ft | 455 kts | 351° |
| 2026-05-05 13:05 | -2.11973 | 104.51106 | 28286 ft | 458 kts | 351° |
| 2026-05-05 13:05 | -2.08833 | 104.50512 | 28715 ft | 461 kts | 351° |
| 2026-05-05 13:05 | -2.05680 | 104.49914 | 29138 ft | 463 kts | 351° |
| 2026-05-05 13:05 | -2.02519 | 104.49316 | 29717 ft | 461 kts | 351° |
| 2026-05-05 13:06 | -1.99373 | 104.48720 | 30296 ft | 459 kts | 351° |
| 2026-05-05 13:06 | -1.96242 | 104.48128 | 30795 ft | 458 kts | 351° |
| 2026-05-05 13:06 | -1.93113 | 104.47537 | 31244 ft | 457 kts | 351° |
| 2026-05-05 13:06 | -1.89989 | 104.46947 | 31736 ft | 456 kts | 350° |
| 2026-05-05 13:07 | -1.86871 | 104.46357 | 32182 ft | 456 kts | 350° |
| 2026-05-05 13:07 | -1.83758 | 104.45769 | 32658 ft | 455 kts | 350° |
| 2026-05-05 13:07 | -1.80651 | 104.45181 | 33092 ft | 454 kts | 350° |
| 2026-05-05 13:07 | -1.77548 | 104.44595 | 33480 ft | 454 kts | 350° |
| 2026-05-05 13:08 | -1.74448 | 104.44010 | 33924 ft | 453 kts | 350° |
| 2026-05-05 13:08 | -1.71339 | 104.43423 | 34013 ft | 456 kts | 350° |
| 2026-05-05 13:08 | -1.65124 | 104.42246 | 34032 ft | 454 kts | 350° |
| 2026-05-05 13:09 | -1.58961 | 104.41079 | 34027 ft | 453 kts | 350° |
| 2026-05-05 13:09 | -1.52768 | 104.39907 | 34025 ft | 453 kts | 350° |
| 2026-05-05 13:10 | -1.46574 | 104.38737 | 34020 ft | 453 kts | 350° |
| 2026-05-05 13:10 | -1.40380 | 104.37564 | 34024 ft | 453 kts | 350° |
| 2026-05-05 13:11 | -1.34184 | 104.36393 | 34008 ft | 453 kts | 350° |
| 2026-05-05 13:11 | -1.27992 | 104.35221 | 34009 ft | 453 kts | 350° |
| 2026-05-05 13:12 | -1.21793 | 104.34050 | 34006 ft | 453 kts | 350° |
| 2026-05-05 13:12 | -1.15595 | 104.32879 | 34010 ft | 453 kts | 350° |
| 2026-05-05 13:13 | -1.09402 | 104.31707 | 34010 ft | 453 kts | 350° |
| 2026-05-05 13:13 | -1.03208 | 104.30534 | 34009 ft | 453 kts | 350° |
| 2026-05-05 13:14 | -0.97014 | 104.29363 | 34010 ft | 453 kts | 350° |
| 2026-05-05 13:14 | -0.90817 | 104.28192 | 34010 ft | 453 kts | 350° |
| 2026-05-05 13:15 | -0.84617 | 104.27019 | 34007 ft | 453 kts | 350° |
| 2026-05-05 13:15 | -0.78419 | 104.25847 | 34000 ft | 453 kts | 350° |
| 2026-05-05 13:16 | -0.72216 | 104.24675 | 34000 ft | 453 kts | 350° |
| 2026-05-05 13:16 | -0.66057 | 104.23511 | 34000 ft | 454 kts | 350° |
| 2026-05-05 13:17 | -0.59846 | 104.22336 | 33999 ft | 454 kts | 350° |
| 2026-05-05 13:17 | -0.53640 | 104.21152 | 34000 ft | 454 kts | 349° |
| 2026-05-05 13:18 | -0.47440 | 104.19910 | 34001 ft | 454 kts | 349° |
| 2026-05-05 13:18 | -0.41179 | 104.18674 | 34012 ft | 465 kts | 349° |
| 2026-05-05 13:19 | -0.34784 | 104.17407 | 34016 ft | 471 kts | 349° |
| 2026-05-05 13:19 | -0.28347 | 104.16115 | 34007 ft | 473 kts | 349° |
| 2026-05-05 13:20 | -0.21896 | 104.14815 | 34001 ft | 473 kts | 349° |
| 2026-05-05 13:20 | -0.15435 | 104.13518 | 33998 ft | 473 kts | 349° |
| 2026-05-05 13:21 | -0.08978 | 104.12238 | 33984 ft | 473 kts | 349° |
| 2026-05-05 13:21 | -0.05760 | 104.11600 | 33153 ft | 469 kts | 349° |
| 2026-05-05 13:21 | -0.02557 | 104.10966 | 31823 ft | 470 kts | 349° |
| 2026-05-05 13:22 | 0.00659 | 104.10329 | 30405 ft | 473 kts | 350° |
| 2026-05-05 13:22 | 0.03896 | 104.09687 | 28880 ft | 475 kts | 350° |
| 2026-05-05 13:22 | 0.06044 | 104.09260 | 27972 ft | 475 kts | 350° |
| 2026-05-05 13:22 | 0.10337 | 104.08408 | 26404 ft | 465 kts | 350° |
| 2026-05-05 13:23 | 0.12427 | 104.07992 | 25624 ft | 461 kts | 350° |
| 2026-05-05 13:23 | 0.16549 | 104.07173 | 24125 ft | 451 kts | 350° |
| 2026-05-05 13:23 | 0.19607 | 104.06566 | 23004 ft | 444 kts | 350° |
| 2026-05-05 13:23 | 0.22617 | 104.05971 | 21945 ft | 437 kts | 350° |
| 2026-05-05 13:24 | 0.24617 | 104.05581 | 21254 ft | 431 kts | 350° |
| 2026-05-05 13:24 | 0.28469 | 104.04823 | 19906 ft | 421 kts | 350° |
| 2026-05-05 13:24 | 0.30354 | 104.04452 | 19227 ft | 415 kts | 350° |
| 2026-05-05 13:24 | 0.33162 | 104.03900 | 18385 ft | 405 kts | 350° |
| 2026-05-05 13:25 | 0.35903 | 104.03356 | 17708 ft | 398 kts | 349° |
| 2026-05-05 13:25 | 0.38609 | 104.02821 | 17166 ft | 396 kts | 349° |
| 2026-05-05 13:25 | 0.41308 | 104.02287 | 16617 ft | 395 kts | 349° |
| 2026-05-05 13:25 | 0.43996 | 104.01754 | 16072 ft | 394 kts | 349° |
| 2026-05-05 13:26 | 0.46681 | 104.01221 | 15524 ft | 392 kts | 349° |
| 2026-05-05 13:26 | 0.49346 | 104.00693 | 14977 ft | 390 kts | 349° |
| 2026-05-05 13:26 | 0.51994 | 104.00169 | 14426 ft | 386 kts | 349° |
| 2026-05-05 13:26 | 0.54623 | 103.99652 | 13878 ft | 384 kts | 349° |
| 2026-05-05 13:27 | 0.57231 | 103.99139 | 13326 ft | 380 kts | 349° |
| 2026-05-05 13:27 | 0.59821 | 103.98619 | 12769 ft | 378 kts | 348° |
| 2026-05-05 13:27 | 0.62383 | 103.98095 | 12228 ft | 375 kts | 349° |
| 2026-05-05 13:27 | 0.64936 | 103.97599 | 11681 ft | 372 kts | 349° |
| 2026-05-05 13:28 | 0.67463 | 103.97104 | 11127 ft | 369 kts | 349° |
| 2026-05-05 13:28 | 0.69971 | 103.96609 | 10569 ft | 367 kts | 349° |
| 2026-05-05 13:28 | 0.72435 | 103.96126 | 10018 ft | 353 kts | 349° |
| 2026-05-05 13:28 | 0.74797 | 103.95648 | 9454 ft | 340 kts | 348° |
| 2026-05-05 13:29 | 0.77077 | 103.95154 | 8886 ft | 330 kts | 347° |
| 2026-05-05 13:29 | 0.79298 | 103.94668 | 8332 ft | 323 kts | 347° |
| 2026-05-05 13:29 | 0.81464 | 103.94199 | 7763 ft | 315 kts | 348° |
| 2026-05-05 13:29 | 0.83583 | 103.93743 | 7265 ft | 308 kts | 347° |
| 2026-05-05 13:30 | 0.85653 | 103.93297 | 6752 ft | 301 kts | 348° |
| 2026-05-05 13:30 | 0.87686 | 103.92864 | 6242 ft | 296 kts | 348° |
| 2026-05-05 13:30 | 0.89684 | 103.92435 | 5738 ft | 291 kts | 347° |
| 2026-05-05 13:30 | 0.91652 | 103.92013 | 5237 ft | 287 kts | 348° |
| 2026-05-05 13:31 | 0.93600 | 103.91594 | 4729 ft | 284 kts | 347° |
| 2026-05-05 13:31 | 0.95524 | 103.91181 | 4226 ft | 282 kts | 348° |
| 2026-05-05 13:31 | 0.97417 | 103.90784 | 3965 ft | 272 kts | 348° |
| 2026-05-05 13:31 | 0.99250 | 103.90428 | 3963 ft | 268 kts | 351° |
| 2026-05-05 13:32 | 1.01101 | 103.90135 | 3963 ft | 270 kts | 351° |
| 2026-05-05 13:32 | 1.02966 | 103.89836 | 3873 ft | 274 kts | 351° |
| 2026-05-05 13:32 | 1.04851 | 103.89537 | 3732 ft | 272 kts | 353° |
| 2026-05-05 13:32 | 1.06692 | 103.89488 | 3641 ft | 261 kts | 2° |
| 2026-05-05 13:33 | 1.08471 | 103.89519 | 3612 ft | 245 kts | 1° |
| 2026-05-05 13:33 | 1.10117 | 103.89529 | 3409 ft | 238 kts | 1° |
| 2026-05-05 13:33 | 1.11772 | 103.89542 | 3117 ft | 237 kts | 1° |
| 2026-05-05 13:33 | 1.13416 | 103.89473 | 2782 ft | 237 kts | 352° |
| 2026-05-05 13:34 | 1.15040 | 103.89242 | 2480 ft | 234 kts | 4° |
| 2026-05-05 13:34 | 1.16520 | 103.89777 | 2458 ft | 226 kts | 32° |
| 2026-05-05 13:34 | 1.17884 | 103.90566 | 2479 ft | 228 kts | 25° |
| 2026-05-05 13:34 | 1.19297 | 103.91123 | 2495 ft | 209 kts | 20° |
| 2026-05-05 13:35 | 1.20615 | 103.91641 | 2495 ft | 200 kts | 25° |
| 2026-05-05 13:35 | 1.21863 | 103.92206 | 2491 ft | 195 kts | 25° |
| 2026-05-05 13:35 | 1.23106 | 103.92732 | 2488 ft | 193 kts | 23° |
| 2026-05-05 13:35 | 1.24350 | 103.93250 | 2276 ft | 189 kts | 24° |
| 2026-05-05 13:36 | 1.25489 | 103.93739 | 2034 ft | 170 kts | 24° |
| 2026-05-05 13:36 | 1.26543 | 103.94189 | 1814 ft | 160 kts | 23° |
| 2026-05-05 13:36 | 1.27561 | 103.94617 | 1611 ft | 157 kts | 23° |
| 2026-05-05 13:36 | 1.28560 | 103.95043 | 1403 ft | 155 kts | 23° |
| 2026-05-05 13:37 | 1.29553 | 103.95465 | 1193 ft | 156 kts | 22° |
| 2026-05-05 13:37 | 1.30552 | 103.95889 | 990 ft | 155 kts | 23° |
| 2026-05-05 13:37 | 1.31543 | 103.96315 | 777 ft | 154 kts | 23° |
| 2026-05-05 13:37 | 1.32519 | 103.96725 | 567 ft | 147 kts | 22° |
| 2026-05-05 13:38 | 1.33423 | 103.97109 | 380 ft | 136 kts | 23° |
| 2026-05-05 13:38 | 1.34272 | 103.97466 | 201 ft | 130 kts | 22° |
| 2026-05-05 13:38 | 1.35092 | 103.97816 | 42 ft | 126 kts | 24° |
| 2026-05-05 13:38 | 1.35812 | 103.98129 | 31 ft | 101 kts | 23° |
| 2026-05-05 13:39 | 1.36381 | 103.98371 | 29 ft | 75 kts | 24° |
| 2026-05-05 13:39 | 1.36690 | 103.98551 | 29 ft | 40 kts | 47° |
| 2026-05-05 13:39 | 1.36846 | 103.98754 | 29 ft | 29 kts | 56° |
| 2026-05-05 13:39 | 1.36812 | 103.98876 | 29 ft | 20 kts | 117° |
| 2026-05-05 13:40 | 1.36748 | 103.99010 | 29 ft | 23 kts | 112° |
| 2026-05-05 13:40 | 1.36645 | 103.99122 | 29 ft | 25 kts | 174° |
| 2026-05-05 13:40 | 1.36468 | 103.99144 | 29 ft | 27 kts | 173° |
| 2026-05-05 13:40 | 1.36311 | 103.99093 | 29 ft | 14 kts | 205° |
| 2026-05-05 13:41 | 1.36313 | 103.99005 | 29 ft | 13 kts | 294° |
| 2026-05-05 13:41 | 1.36318 | 103.98994 | 29 ft | 0 kts | 295° |